EGPAEGPO

Guest
Details From EGPA - Kirkwall
To EGPO - Stornoway
Flight Number -
Tags generated
Created
Modified
Stats Distance 118 nm / 219 km
Max Altitude 7,900 ft / 2,408 m
Waypoints 3
Social Downloads 5
Likes 0
Share VATSIM

Download

Looking for another format? Having issues loading an existing format? Contact us
Advertisement - Login to hide

Notes

Basic altitude profile: - Ascent Rate: 2500ft/min - Ascent Speed: 250kts - Cruise Altitude: 35000ft - Cruise Speed: 420kts - Descent Rate: 1500ft/min - Descent Speed: 250kts Options: - Use NATs: yes - Use PACOTS: yes - Use low airways: yes - Use high airways: yes

Route

EGPA QN9 EGPO

ID Type Via Altitude Latitude Longitude Leg Dist Tot Dist Heading (true) Name
O EGPA APT - 0 ft / 0 m 58.95808˚ -2.90302˚ - 0 nm - Kirkwall
QN9 VOR - 7,900 ft / 2,408 m 58.30000˚ -5.16667˚ 81 nm 81 nm 242° / 240° -
O EGPO APT - 0 ft / 0 m 58.21450˚ -6.33060˚ 37 nm 118 nm 263° / 262° Stornoway

Altitude Profile

Advertisement - Login to hide

EGPA

Details ICAO EGPA (KOI)
Name Kirkwall
Region United Kingdom
Timezone Europe/London (UTC+0.0)
Stats Elevation 51 ft / 16 m (AMSL)
Location 58.958083° -2.903015°
Runways 2
Magnetic Variation 2.634° W

METAR

EGPA 111920Z 29004KT 230V010 9999 VCSH FEW015CB FEW028 02/00 Q0996

Decode

TAF

Not found

Departure Runways

ID Width Length Bearing (true) Bearing (mag) Surface Threshold Offset Overrun Length
09 151 ft / 46 m 4,748 ft / 1,447 m 87.41° 90.04° Asphalt 551 ft / 168 m 0 ft / 0 m
15 59 ft / 18 m 2,224 ft / 678 m 140.44° 143.07° Asphalt 0 ft / 0 m 0 ft / 0 m
27 151 ft / 46 m 4,748 ft / 1,447 m 267.43° 270.06° Asphalt 135 ft / 41 m 0 ft / 0 m
33 59 ft / 18 m 2,224 ft / 678 m 320.44° 323.07° Asphalt 397 ft / 121 m 0 ft / 0 m

EGPO

Details ICAO EGPO (SYY)
Name Stornoway
Region United Kingdom
Timezone Europe/London (UTC+0.0)
Stats Elevation 26 ft / 8 m (AMSL)
Location 58.214496° -6.330596°
Runways 2
Magnetic Variation 4.034° W

METAR

EGPO 111920Z 35007KT 9999 VCSH FEW010 FEW015CB SCT033 02/01 Q1000

Decode

TAF

Not found

Destination Runways

ID Width Length Bearing (true) Bearing (mag) Surface Threshold Offset Overrun Length
07 75 ft / 23 m 3,574 ft / 1,090 m 59.83° 63.86° Asphalt 305 ft / 93 m 0 ft / 0 m
18 151 ft / 46 m 6,797 ft / 2,072 m 174.28° 178.31° Asphalt 0 ft / 0 m 397 ft / 121 m
25 75 ft / 23 m 3,574 ft / 1,090 m 239.84° 243.87° Asphalt 0 ft / 0 m 0 ft / 0 m
36 151 ft / 46 m 6,797 ft / 2,072 m 354.29° 358.32° Asphalt 0 ft / 0 m 394 ft / 120 m

Approach Navaids

Runway Type Ident Frequency Range Bearing (true) Bearing (mag) Slope Elevation
18 Localiser STW 110.90 MHz 18 nm / 33 km 180.37° 184.40° - 26 ft / 8 m (AMSL)
18 DME STW 110.90 MHz 18 nm / 33 km - - - 26 ft / 8 m (AMSL)
36 Localiser SOY 110.90 MHz 18 nm / 33 km 354.29° 358.33° - 26 ft / 8 m (AMSL)
36 DME SOY 110.90 MHz 18 nm / 33 km - - - 26 ft / 8 m (AMSL)

Popular Alternatives